Time;durP1;ratioP1;P1;durP2;ratioP2;P2;SDS_P1;SDS_P2;PMS_P1;PMS_P2;Temp;Humidity;BMP_temperature;BMP_pressure;BME280_temperature;BME280_humidity;BME280_pressure;Samples;Min_cycle;Max_cycle;Signal;HPM_P1;HPM_P2
2021/10/15 00:01:29;;;;;;;;;48.50;42.00;;;;;11.52;67.91;101751.03;4936191;28;45258;-74
2021/10/15 00:03:55;;;;;;;;;50.25;40.00;;;;;11.51;67.92;101751.88;4935751;28;49127;-74
2021/10/15 00:06:20;;;;;;;;;54.50;42.75;;;;;11.50;67.99;101749.19;4935953;28;50719;-75
2021/10/15 00:08:45;;;;;;;;;49.50;41.00;;;;;11.50;68.13;101757.13;4935677;28;47175;-75
2021/10/15 00:11:11;;;;;;;;;51.00;41.00;;;;;11.48;68.07;101753.56;4935417;28;57861;-74
2021/10/15 00:13:36;;;;;;;;;51.25;38.75;;;;;11.48;68.15;101753.56;4935731;28;52535;-74
2021/10/15 00:16:02;;;;;;;;;55.00;42.00;;;;;11.46;68.06;101758.81;4935915;28;45489;-74
2021/10/15 00:18:27;;;;;;;;;53.50;40.75;;;;;11.46;68.24;101750.00;4935110;28;62136;-75
2021/10/15 00:20:53;;;;;;;;;57.00;41.75;;;;;11.45;68.15;101757.03;4935691;28;45261;-74
2021/10/15 00:23:18;;;;;;;;;51.00;42.00;;;;;11.41;68.01;101741.97;4935251;28;56046;-74
2021/10/15 00:25:43;;;;;;;;;52.00;42.25;;;;;11.41;68.42;101741.97;4935562;28;45455;-74
2021/10/15 00:28:09;;;;;;;;;58.00;41.25;;;;;11.43;68.30;101745.53;4934909;28;63242;-74
2021/10/15 00:30:34;;;;;;;;;57.50;42.75;;;;;11.43;68.19;101747.28;4934921;28;60147;-74
2021/10/15 00:32:59;;;;;;;;;53.50;41.75;;;;;11.42;68.31;101746.38;4935046;28;46578;-74
2021/10/15 00:35:25;;;;;;;;;54.50;42.25;;;;;11.41;68.30;101739.31;4941518;28;50510;-74
2021/10/15 00:37:50;;;;;;;;;53.25;42.00;;;;;11.40;68.28;101740.19;4934930;28;48204;-74
2021/10/15 00:40:16;;;;;;;;;52.50;42.25;;;;;11.41;68.29;101744.59;4956874;28;60352;-75
2021/10/15 00:42:42;;;;;;;;;54.50;41.00;;;;;11.35;68.45;101733.00;4934539;28;45247;-74
2021/10/15 00:45:07;;;;;;;;;56.25;42.00;;;;;11.34;68.20;101731.19;4935242;28;45212;-74
2021/10/15 00:47:33;;;;;;;;;54.25;42.25;;;;;11.39;68.39;101742.78;4934272;28;47291;-75
2021/10/15 00:49:58;;;;;;;;;54.25;44.50;;;;;11.35;68.44;101747.13;4934182;28;45421;-74
2021/10/15 00:52:23;;;;;;;;;57.00;41.75;;;;;11.36;68.67;101746.25;4933958;28;51631;-75
2021/10/15 00:54:49;;;;;;;;;58.75;44.00;;;;;11.30;68.54;101732.91;4936601;28;54057;-74
2021/10/15 00:57:14;;;;;;;;;53.75;41.50;;;;;11.28;68.52;101727.56;4933340;28;46501;-74
2021/10/15 00:59:40;;;;;;;;;55.00;43.50;;;;;11.35;68.44;101735.66;4933735;28;52026;-74
2021/10/15 01:02:06;;;;;;;;;51.25;41.50;;;;;11.33;68.42;101735.59;4933605;28;45463;-74
2021/10/15 01:04:32;;;;;;;;;53.50;44.00;;;;;11.27;68.54;101723.13;4934666;28;45490;-75
2021/10/15 01:06:58;;;;;;;;;54.25;41.25;;;;;11.31;68.66;101732.03;4917410;28;46645;-75
2021/10/15 01:09:23;;;;;;;;;55.25;43.00;;;;;11.32;68.55;101730.28;4915808;28;54062;-74
2021/10/15 01:11:49;;;;;;;;;52.75;42.00;;;;;11.31;68.49;101724.09;4934171;28;57190;-74
2021/10/15 01:14:15;;;;;;;;;53.50;42.50;;;;;11.30;68.69;101732.00;4932610;28;45448;-74
2021/10/15 01:16:41;;;;;;;;;56.75;43.25;;;;;11.25;68.61;101716.03;4916979;28;46627;-74
2021/10/15 01:19:06;;;;;;;;;54.00;42.75;;;;;11.26;68.75;101725.75;4933508;28;45284;-74
2021/10/15 01:21:32;;;;;;;;;52.00;42.25;;;;;11.27;68.57;101724.88;4933655;28;55425;-74
2021/10/15 01:23:58;;;;;;;;;55.50;42.75;;;;;11.26;68.62;101715.19;4934545;28;45433;-74
2021/10/15 01:26:23;;;;;;;;;53.00;41.75;;;;;11.23;68.67;101713.34;4934275;28;46651;-73
2021/10/15 01:28:48;;;;;;;;;48.25;39.25;;;;;11.23;68.65;101723.03;4933725;28;45265;-74
2021/10/15 01:31:14;;;;;;;;;53.50;42.00;;;;;11.20;68.74;101715.94;4933837;28;45530;-75
2021/10/15 01:33:39;;;;;;;;;52.00;41.00;;;;;11.20;68.76;101704.47;4936550;28;45158;-74
2021/10/15 01:36:05;;;;;;;;;57.25;42.00;;;;;11.15;68.70;101695.53;4933301;28;63960;-74
2021/10/15 01:38:30;;;;;;;;;58.50;42.75;;;;;11.19;68.84;101711.50;4933252;28;45265;-74
2021/10/15 01:40:55;;;;;;;;;50.50;41.50;;;;;11.13;68.75;101699.88;4941436;28;45572;-74
2021/10/15 01:43:23;;;;;;;;;56.00;41.00;;;;;11.17;68.69;101707.03;4934672;28;48970;-74
2021/10/15 01:45:48;;;;;;;;;54.00;41.25;;;;;11.15;68.83;101709.66;4937169;28;46859;-74
2021/10/15 01:48:13;;;;;;;;;54.25;42.00;;;;;11.16;68.72;101710.53;4936932;28;46456;-74
2021/10/15 01:50:39;;;;;;;;;53.00;41.75;;;;;11.09;68.68;101698.06;4937816;28;45431;-75
2021/10/15 01:53:04;;;;;;;;;51.25;41.75;;;;;11.12;68.82;101701.63;4937287;28;53512;-74
2021/10/15 01:55:30;;;;;;;;;55.50;43.00;;;;;11.10;68.76;101690.16;4938184;28;46422;-74
2021/10/15 01:57:55;;;;;;;;;53.50;40.25;;;;;11.08;68.98;101690.94;4937411;28;54209;-74
2021/10/15 02:00:20;;;;;;;;;48.75;42.50;;;;;11.05;68.83;101680.34;4937305;28;50986;-74
2021/10/15 02:02:46;;;;;;;;;53.50;41.25;;;;;11.06;68.98;101680.34;4937280;28;51398;-74
2021/10/15 02:05:15;;;;;;;;;55.00;41.25;;;;;11.07;69.08;101691.81;4937296;28;46639;-75
2021/10/15 02:07:40;;;;;;;;;50.25;41.25;;;;;11.07;69.00;101692.72;4937202;28;45506;-74
2021/10/15 02:10:06;;;;;;;;;47.75;39.00;;;;;11.04;68.91;101687.38;4937243;28;45220;-75
2021/10/15 02:12:32;;;;;;;;;47.00;39.00;;;;;11.02;68.91;101686.41;4937355;28;45476;-74
2021/10/15 02:14:57;;;;;;;;;49.50;39.25;;;;;11.02;68.83;101692.63;4936973;28;46635;-74
2021/10/15 02:17:23;;;;;;;;;49.00;41.00;;;;;11.00;68.92;101689.03;4936731;28;56748;-75
2021/10/15 02:19:48;;;;;;;;;43.50;37.75;;;;;10.99;69.12;101686.38;4936584;28;54845;-74
2021/10/15 02:22:13;;;;;;;;;46.50;38.25;;;;;10.97;68.93;101683.72;4936724;28;54205;-74
2021/10/15 02:24:39;;;;;;;;;54.25;41.00;;;;;10.94;69.08;101670.41;4936947;28;54980;-74
2021/10/15 02:27:04;;;;;;;;;45.75;38.00;;;;;10.95;68.82;101680.13;4936753;28;45366;-74
2021/10/15 02:29:29;;;;;;;;;42.25;36.75;;;;;10.94;69.02;101675.69;4937080;28;45449;-74
2021/10/15 02:31:55;;;;;;;;;49.50;41.50;;;;;10.92;68.73;101680.06;4936814;28;55812;-75
2021/10/15 02:34:20;;;;;;;;;44.00;35.75;;;;;10.88;68.61;101653.53;4949994;28;62582;-75
2021/10/15 02:36:46;;;;;;;;;51.75;38.75;;;;;10.90;68.99;101663.25;4936463;28;45326;-74
2021/10/15 02:39:11;;;;;;;;;40.75;36.50;;;;;10.91;69.02;101662.41;4955844;28;52080;-74
2021/10/15 02:41:37;;;;;;;;;53.25;38.75;;;;;10.90;69.29;101657.09;4935905;28;45442;-74
2021/10/15 02:44:12;;;;;;;;;52.00;39.00;;;;;10.88;69.00;101657.06;4936123;28;46660;-74
2021/10/15 02:46:38;;;;;;;;;48.50;40.00;;;;;10.87;68.77;101660.56;4936126;28;45288;-75
2021/10/15 02:49:04;;;;;;;;;42.75;36.50;;;;;10.88;68.81;101662.34;4936224;28;45534;-73
2021/10/15 02:51:29;;;;;;;;;44.00;36.25;;;;;10.84;68.89;101657.84;4935862;28;45506;-74
2021/10/15 02:53:55;;;;;;;;;50.75;39.00;;;;;10.85;68.97;101664.91;4936002;28;47769;-74
2021/10/15 02:56:20;;;;;;;;;45.00;38.25;;;;;10.85;69.03;101670.19;4967374;28;62341;-74
2021/10/15 02:58:46;;;;;;;;;45.25;37.75;;;;;10.84;68.97;101670.16;4936084;28;45416;-75
2021/10/15 03:01:11;;;;;;;;;44.50;38.00;;;;;10.84;69.01;101678.97;4935859;28;54235;-74
2021/10/15 03:03:36;;;;;;;;;42.75;38.25;;;;;10.86;69.34;101681.66;4934980;28;61770;-74
2021/10/15 03:06:02;;;;;;;;;41.50;35.50;;;;;10.89;69.36;101679.09;4936345;28;45397;-74
2021/10/15 03:08:27;;;;;;;;;53.00;38.50;;;;;10.90;69.58;101675.59;4934237;28;54520;-74
2021/10/15 03:10:52;;;;;;;;;43.50;37.25;;;;;10.90;69.54;101665.91;4935204;28;54640;-74
2021/10/15 03:13:18;;;;;;;;;41.25;36.50;;;;;10.87;69.28;101660.56;4935133;28;62579;-74
2021/10/15 03:15:43;;;;;;;;;42.50;36.50;;;;;10.93;69.49;101666.00;4935846;28;46059;-74
2021/10/15 03:18:09;;;;;;;;;44.25;37.25;;;;;10.92;69.56;101661.56;4935358;28;49441;-74
2021/10/15 03:20:35;;;;;;;;;42.00;34.75;;;;;10.92;69.54;101669.50;4935426;28;45665;-74
2021/10/15 03:23:01;;;;;;;;;47.00;38.75;;;;;10.96;69.33;101671.31;4935735;28;47822;-74
2021/10/15 03:25:27;;;;;;;;;48.25;37.50;;;;;10.99;69.30;101665.22;4935769;28;45393;-74
2021/10/15 03:27:52;;;;;;;;;47.25;33.00;;;;;10.99;69.44;101660.84;4935986;28;45297;-74
2021/10/15 03:30:17;;;;;;;;;43.50;35.00;;;;;11.00;69.40;101652.03;4934960;28;49598;-74
2021/10/15 03:32:43;;;;;;;;;47.25;35.50;;;;;11.02;69.25;101666.22;4935054;28;60467;-74
2021/10/15 03:35:08;;;;;;;;;44.75;37.25;;;;;11.03;69.28;101664.44;4937792;28;45530;-75
2021/10/15 03:37:34;;;;;;;;;44.25;37.00;;;;;11.00;69.23;101651.16;4935881;28;45455;-74
2021/10/15 03:39:59;;;;;;;;;46.25;36.50;;;;;11.07;69.30;101662.75;4935533;28;45348;-74
2021/10/15 03:42:25;;;;;;;;;37.25;33.00;;;;;11.08;69.22;101654.88;4927728;28;63865;-74
2021/10/15 03:44:51;;;;;;;;;46.00;37.75;;;;;11.07;69.39;101652.19;4936175;28;45269;-74
2021/10/15 03:47:16;;;;;;;;;39.50;36.50;;;;;11.12;69.39;101648.78;4935995;28;52743;-74
2021/10/15 03:49:41;;;;;;;;;42.00;36.00;;;;;11.11;69.22;101644.34;4936005;28;45407;-75
2021/10/15 03:52:07;;;;;;;;;40.75;35.00;;;;;11.16;69.37;101647.09;4935590;28;58547;-74
2021/10/15 03:54:32;;;;;;;;;45.00;38.50;;;;;11.18;69.58;101658.59;4937476;28;45281;-74
2021/10/15 03:56:58;;;;;;;;;38.50;35.50;;;;;11.14;69.69;101635.63;4923740;28;45253;-74
2021/10/15 03:59:23;;;;;;;;;43.50;34.50;;;;;11.23;69.53;101649.00;4935292;28;54340;-74
2021/10/15 04:01:48;;;;;;;;;39.75;35.25;;;;;11.27;69.30;101651.75;4936146;28;47369;-75
2021/10/15 04:04:14;;;;;;;;;45.00;37.25;;;;;11.29;69.33;101651.78;4935997;28;45292;-74
2021/10/15 04:06:39;;;;;;;;;37.75;35.00;;;;;11.33;69.53;101653.63;4934920;28;53488;-75
2021/10/15 04:09:04;;;;;;;;;41.50;35.00;;;;;11.35;69.44;101648.41;4935701;28;45403;-74
2021/10/15 04:11:30;;;;;;;;;42.75;36.75;;;;;11.37;69.51;101650.19;4935587;28;61766;-74
2021/10/15 04:13:55;;;;;;;;;40.75;34.25;;;;;11.38;69.47;101644.03;4935912;28;45381;-74
2021/10/15 04:16:21;;;;;;;;;48.75;37.50;;;;;11.42;69.23;101652.94;4934595;28;45226;-73
2021/10/15 04:18:46;;;;;;;;;40.00;36.75;;;;;11.41;69.36;101644.13;4934658;28;52686;-74
2021/10/15 04:21:11;;;;;;;;;43.50;37.00;;;;;11.44;69.19;101644.16;4934116;28;62721;-74
2021/10/15 04:23:37;;;;;;;;;39.75;33.00;;;;;11.46;69.20;101637.19;4933585;28;58574;-74
2021/10/15 04:26:02;;;;;;;;;34.00;29.75;;;;;11.46;69.15;101637.19;4935036;28;51056;-74
2021/10/15 04:28:28;;;;;;;;;37.25;34.00;;;;;11.39;69.11;101622.03;4934081;28;52931;-74
2021/10/15 04:30:53;;;;;;;;;42.25;35.00;;;;;11.43;69.12;101637.09;4935076;28;46468;-74
2021/10/15 04:33:18;;;;;;;;;31.25;29.25;;;;;11.40;69.31;101629.13;4937556;28;45922;-74
2021/10/15 04:35:44;;;;;;;;;36.50;32.75;;;;;11.39;69.02;101629.97;4934517;28;50364;-74
2021/10/15 04:38:10;;;;;;;;;33.50;28.75;;;;;11.32;69.10;101624.53;4935125;28;45463;-74
2021/10/15 04:40:35;;;;;;;;;43.00;29.50;;;;;11.35;69.13;101628.13;4939790;28;46605;-75
2021/10/15 04:43:00;;;;;;;;;39.50;32.00;;;;;11.33;69.28;101621.91;4934576;28;45345;-74
2021/10/15 04:45:26;;;;;;;;;37.75;27.25;;;;;11.30;69.06;101616.56;4934343;28;55009;-74
2021/10/15 04:47:51;;;;;;;;;35.25;30.25;;;;;11.29;69.47;101617.41;4934122;28;51219;-74
2021/10/15 04:50:17;;;;;;;;;39.25;33.25;;;;;11.22;69.25;101605.81;4933402;28;63213;-74
2021/10/15 04:52:42;;;;;;;;;38.50;32.50;;;;;11.25;69.19;101612.94;4934393;28;59358;-74
2021/10/15 04:55:08;;;;;;;;;34.00;28.75;;;;;11.20;69.24;101599.63;4959522;28;45629;-75
2021/10/15 04:57:33;;;;;;;;;37.25;31.00;;;;;11.20;69.34;101611.94;4934317;28;45431;-73
2021/10/15 04:59:59;;;;;;;;;37.00;30.25;;;;;11.17;69.02;101607.47;4934016;28;58760;-74
2021/10/15 05:02:24;;;;;;;;;40.50;31.25;;;;;11.14;69.29;101615.34;4934026;28;50964;-74
2021/10/15 05:04:49;;;;;;;;;41.25;30.50;;;;;11.12;69.17;101611.78;4933611;28;45820;-74
2021/10/15 05:07:15;;;;;;;;;34.75;31.50;;;;;11.09;69.31;101617.00;4932995;28;45511;-74
2021/10/15 05:09:42;;;;;;;;;31.75;30.00;;;;;11.06;69.14;101614.28;4933843;28;47318;-75
2021/10/15 05:12:13;;;;;;;;;36.00;28.75;;;;;11.07;69.22;101612.53;4934244;28;45384;-74
2021/10/15 05:14:39;;;;;;;;;32.25;30.00;;;;;11.04;69.41;101604.56;4934437;28;45385;-74
2021/10/15 05:17:04;;;;;;;;;37.50;29.50;;;;;11.06;69.50;101613.41;4933967;28;45490;-74
2021/10/15 05:19:30;;;;;;;;;33.25;31.25;;;;;11.06;69.46;101608.13;4935982;28;46913;-74
2021/10/15 05:21:55;;;;;;;;;34.75;31.00;;;;;11.06;69.48;101608.13;4937181;28;45360;-74
2021/10/15 05:24:23;;;;;;;;;39.00;33.50;;;;;11.06;69.60;101613.41;4930466;28;45455;-74
2021/10/15 05:26:48;;;;;;;;;40.25;34.00;;;;;11.03;69.48;101603.66;4935898;28;47245;-74
2021/10/15 05:29:13;;;;;;;;;33.75;31.00;;;;;11.05;69.68;101601.94;4936842;28;46536;-74
2021/10/15 05:31:39;;;;;;;;;32.25;29.00;;;;;11.00;69.75;101596.56;4936684;28;45392;-75
2021/10/15 05:34:04;;;;;;;;;31.25;27.25;;;;;11.04;69.75;101610.72;4941863;28;45477;-77
2021/10/15 05:36:30;;;;;;;;;36.00;30.25;;;;;11.02;69.61;101597.50;4934279;28;51469;-76
2021/10/15 05:38:55;;;;;;;;;40.00;31.00;;;;;11.05;69.67;101595.75;4933282;28;64460;-72
2021/10/15 05:41:20;;;;;;;;;39.00;33.75;;;;;11.04;69.69;101601.91;4935737;28;45465;-73
2021/10/15 05:43:46;;;;;;;;;29.50;28.50;;;;;11.04;69.62;101599.28;4943638;28;56503;-73
2021/10/15 05:46:11;;;;;;;;;39.00;28.25;;;;;11.00;69.64;101604.47;4936973;28;45433;-76
2021/10/15 05:48:37;;;;;;;;;34.50;28.25;;;;;10.97;69.84;101591.22;4937167;28;47570;-73
2021/10/15 05:51:02;;;;;;;;;39.50;30.25;;;;;10.91;69.79;101588.41;4939733;28;45587;-75
2021/10/15 05:53:28;;;;;;;;;32.75;30.75;;;;;10.96;69.81;101602.63;4934130;28;45577;-76
2021/10/15 05:58:53;;;;;;;;;37.75;33.00;;;;;10.96;69.96;101610.53;4963397;28;46074;-78
2021/10/15 06:01:23;;;;;;;;;31.50;27.00;;;;;10.96;69.95;101615.84;4934137;28;45885;-74
2021/10/15 06:04:17;;;;;;;;;34.00;34.00;;;;;10.98;69.95;101605.31;4933217;28;45523;-75
2021/10/15 06:15:28;;;;;;;;;27.75;26.00;;;;;10.96;69.63;101604.38;4930907;28;45537;-75
2021/10/15 06:17:55;;;;;;;;;36.25;29.25;;;;;10.96;69.63;101612.31;4931904;28;45811;-77
2021/10/15 06:20:20;;;;;;;;;43.25;31.00;;;;;11.02;69.78;101617.72;4933630;28;47378;-76
2021/10/15 06:22:45;;;;;;;;;35.00;31.75;;;;;10.97;69.73;101619.38;4933809;28;50396;-77
2021/10/15 06:25:11;;;;;;;;;39.25;31.00;;;;;11.01;69.56;101619.47;4933538;28;45457;-75
2021/10/15 06:27:36;;;;;;;;;36.00;28.75;;;;;11.00;69.76;101620.34;4931491;28;55368;-76
2021/10/15 06:30:03;;;;;;;;;43.00;32.00;;;;;10.98;69.67;101615.88;4929428;28;59146;-76
2021/10/15 06:32:28;;;;;;;;;41.75;33.50;;;;;11.04;69.85;101617.78;4932364;28;46033;-76
2021/10/15 06:34:54;;;;;;;;;36.25;30.25;;;;;11.04;69.73;101621.31;4933025;28;53820;-76
2021/10/15 06:37:19;;;;;;;;;35.25;30.50;;;;;11.04;69.72;101623.94;4931461;28;56076;-75
2021/10/15 06:39:44;;;;;;;;;35.00;33.50;;;;;11.02;69.90;101615.06;4933082;28;51661;-75
2021/10/15 06:42:10;;;;;;;;;35.25;32.50;;;;;11.01;69.89;101613.28;4929213;28;56888;-77
2021/10/15 06:44:35;;;;;;;;;35.25;32.75;;;;;10.99;69.65;101610.63;4932701;28;56633;-76
2021/10/15 06:47:01;;;;;;;;;34.50;32.25;;;;;11.06;69.78;101624.84;4930862;28;47020;-75
2021/10/15 06:49:26;;;;;;;;;36.00;33.25;;;;;11.08;69.86;101620.53;4932802;28;47218;-75
2021/10/15 06:51:51;;;;;;;;;43.00;33.50;;;;;11.11;69.91;101622.31;4931464;28;49299;-74
2021/10/15 06:54:17;;;;;;;;;44.50;35.25;;;;;11.15;69.86;101614.50;4931646;28;50505;-75
2021/10/15 06:56:42;;;;;;;;;42.25;35.25;;;;;11.17;69.78;101620.69;4933129;28;53715;-75
2021/10/15 06:59:08;;;;;;;;;43.50;35.50;;;;;11.21;69.91;101626.94;4929356;28;46748;-77
2021/10/15 07:01:33;;;;;;;;;36.50;32.75;;;;;11.20;70.25;101627.81;4929995;28;45571;-76
2021/10/15 07:03:59;;;;;;;;;38.75;35.00;;;;;11.20;70.34;101626.06;4940448;28;46112;-78
2021/10/15 07:06:25;;;;;;;;;40.25;32.50;;;;;11.18;70.11;101622.47;4945035;28;45647;-76
2021/10/15 07:08:50;;;;;;;;;41.00;35.00;;;;;11.18;71.04;101626.88;4945707;28;46734;-79
2021/10/15 07:11:16;;;;;;;;;38.25;33.50;;;;;11.17;70.27;101627.72;4930879;28;60216;-77
2021/10/15 07:13:42;;;;;;;;;47.25;39.50;;;;;11.13;70.98;101631.16;4939080;28;45737;-77
2021/10/15 07:16:08;;;;;;;;;45.50;38.75;;;;;11.14;71.17;101639.16;4929353;28;50588;-83
2021/10/15 07:18:33;;;;;;;;;30.00;24.75;;;;;11.11;70.69;101636.44;4932756;28;45636;-76
2021/10/15 07:21:01;;;;;;;;;50.00;41.25;;;;;11.16;70.67;101647.09;4932835;28;45483;-77
2021/10/15 07:23:26;;;;;;;;;48.50;38.00;;;;;11.13;70.84;101644.38;4931710;28;56534;-76
2021/10/15 07:25:52;;;;;;;;;47.50;39.00;;;;;11.14;71.44;101649.72;4933297;28;56066;-76
2021/10/15 07:28:17;;;;;;;;;46.50;38.00;;;;;11.14;71.07;101648.84;4934003;28;60985;-76
2021/10/15 07:30:43;;;;;;;;;56.25;42.00;;;;;11.16;71.31;101645.34;4930602;28;45624;-78
2021/10/15 07:33:08;;;;;;;;;48.75;40.00;;;;;11.19;71.04;101642.78;4927902;22;45602;-78
2021/10/15 07:35:34;;;;;;;;;48.00;37.50;;;;;11.21;70.99;101635.75;4929673;28;46135;-77
2021/10/15 07:37:59;;;;;;;;;49.50;35.75;;;;;11.28;70.98;101645.59;4929911;28;46280;-76
2021/10/15 07:40:25;;;;;;;;;48.75;38.50;;;;;11.27;71.13;101638.53;4903125;28;60603;-79
2021/10/15 07:42:50;;;;;;;;;49.75;41.00;;;;;11.31;70.69;101639.50;4925635;28;45666;-77
2021/10/15 07:45:16;;;;;;;;;46.00;40.00;;;;;11.42;70.64;101645.00;4919719;28;45333;-78
2021/10/15 07:47:41;;;;;;;;;50.00;38.00;;;;;11.49;70.58;101655.72;4906318;28;56004;-77
2021/10/15 07:50:07;;;;;;;;;48.50;39.00;;;;;11.63;70.50;101665.72;4921004;28;45532;-77
2021/10/15 07:52:32;;;;;;;;;45.00;37.50;;;;;11.72;70.29;101652.69;4920168;28;45532;-78
2021/10/15 07:54:57;;;;;;;;;44.75;38.00;;;;;11.85;70.14;101659.13;4901392;28;45341;-79
2021/10/15 07:57:23;;;;;;;;;48.25;37.75;;;;;11.97;69.95;101661.97;4910534;28;54876;-78
2021/10/15 07:59:48;;;;;;;;;44.75;37.75;;;;;12.05;70.08;101660.38;4922174;28;45532;-80
2021/10/15 08:02:14;;;;;;;;;42.50;37.50;;;;;12.11;69.45;101659.59;4931106;28;45542;-76
2021/10/15 08:04:41;;;;;;;;;48.50;40.00;;;;;12.23;69.45;101673.94;4929729;28;47520;-78
2021/10/15 08:07:06;;;;;;;;;47.25;38.00;;;;;12.27;69.33;101661.66;4923909;28;46730;-77
2021/10/15 08:09:31;;;;;;;;;45.75;37.50;;;;;12.27;68.93;101661.66;4927694;28;45467;-77
2021/10/15 08:11:57;;;;;;;;;48.75;38.50;;;;;12.36;68.91;101668.84;4927133;28;45697;-76
2021/10/15 08:14:25;;;;;;;;;43.00;37.50;;;;;12.36;68.68;101656.53;4924442;28;45592;-77
2021/10/15 08:16:51;;;;;;;;;49.50;39.75;;;;;12.33;68.93;101659.09;4920575;28;46613;-76
2021/10/15 08:19:16;;;;;;;;;45.25;36.25;;;;;12.31;68.55;101660.84;4902280;28;45468;-76
2021/10/15 08:21:42;;;;;;;;;48.50;38.75;;;;;12.33;68.83;101669.69;4897438;28;45507;-79
2021/10/15 08:24:09;;;;;;;;;44.75;36.50;;;;;12.33;69.08;101667.94;4922007;28;45989;-77
2021/10/15 08:26:37;;;;;;;;;43.00;37.25;;;;;12.29;69.14;101654.63;4956904;28;45880;-78
2021/10/15 08:29:03;;;;;;;;;52.00;40.50;;;;;12.31;69.30;101647.59;4929894;28;57986;-77
2021/10/15 08:31:34;;;;;;;;;51.75;41.75;;;;;12.40;69.23;101653.03;4946572;23;45862;-78
2021/10/15 08:34:02;;;;;;;;;54.75;42.25;;;;;12.42;69.16;101653.97;4967663;28;54368;-75
2021/10/15 08:36:27;;;;;;;;;54.00;44.75;;;;;12.44;69.03;101665.47;4968214;28;47086;-75
2021/10/15 08:38:53;;;;;;;;;51.00;41.00;;;;;12.47;68.85;101669.94;4964276;28;60607;-75
2021/10/15 08:41:23;;;;;;;;;55.25;43.75;;;;;12.50;68.96;101664.69;4973823;28;46321;-77
2021/10/15 08:43:53;;;;;;;;;54.00;42.25;;;;;12.57;68.88;101658.63;4974502;28;45598;-77
2021/10/15 08:46:21;;;;;;;;;51.25;41.50;;;;;12.64;68.91;101663.16;4970880;28;45612;-77
2021/10/15 08:48:50;;;;;;;;;55.50;43.75;;;;;12.74;68.68;101664.19;4969732;28;45514;-77
2021/10/15 08:51:16;;;;;;;;;58.25;44.75;;;;;12.72;68.73;101650.91;4980245;23;46434;-77
2021/10/15 08:53:55;;;;;;;;;53.50;42.75;;;;;12.86;68.25;101677.63;4956096;28;45521;-76
2021/10/15 08:56:21;;;;;;;;;53.25;42.25;;;;;12.92;68.33;101680.38;4969200;28;47658;-76
2021/10/15 08:58:48;;;;;;;;;53.75;43.00;;;;;12.95;67.85;101664.53;4945970;28;46632;-76
2021/10/15 09:01:14;;;;;;;;;49.50;40.00;;;;;13.02;68.10;101678.75;4973702;28;45494;-75
2021/10/15 09:03:40;;;;;;;;;49.25;41.75;;;;;13.03;67.93;101676.09;4974156;28;45672;-77
2021/10/15 09:06:07;;;;;;;;;53.00;40.75;;;;;13.03;68.09;101670.81;4973458;28;45571;-76
2021/10/15 09:08:55;;;;;;;;;50.25;40.25;;;;;13.01;67.75;101659.31;4977206;28;45584;-77
2021/10/15 09:11:29;;;;;;;;;48.00;38.00;;;;;13.08;67.37;101665.56;4974701;28;45549;-77
2021/10/15 09:16:27;;;;;;;;;50.50;38.75;;;;;13.11;67.53;101674.47;4979859;23;74408;-77
2021/10/15 09:18:52;;;;;;;;;51.75;44.00;;;;;13.13;67.34;101684.19;4970778;28;57603;-77
2021/10/15 09:21:19;;;;;;;;;55.25;45.75;;;;;13.14;67.22;101684.22;4971395;28;45663;-76
2021/10/15 09:23:44;;;;;;;;;58.50;47.00;;;;;13.16;67.42;101690.44;4959597;28;45551;-77
2021/10/15 09:26:10;;;;;;;;;55.50;45.00;;;;;13.18;67.19;101691.34;4979765;28;45637;-76
2021/10/15 09:28:43;;;;;;;;;51.25;42.00;;;;;13.22;67.37;101692.31;4955435;28;45540;-76
2021/10/15 09:31:30;;;;;;;;;56.25;44.00;;;;;13.25;67.20;101689.69;4929156;28;45785;-75
2021/10/15 09:34:35;;;;;;;;;58.50;47.50;;;;;13.29;67.28;101692.41;4909187;28;45965;-77
2021/10/15 09:37:01;;;;;;;;;55.00;41.75;;;;;13.34;67.44;101689.84;4912938;28;47253;-76
2021/10/15 09:39:27;;;;;;;;;47.00;39.00;;;;;13.41;67.09;101690.78;4967956;28;45565;-75
2021/10/15 09:41:52;;;;;;;;;51.50;40.75;;;;;13.46;66.55;101697.94;4968849;28;46687;-74
2021/10/15 09:44:50;;;;;;;;;57.50;45.75;;;;;13.56;66.44;101702.50;4968090;28;49776;-74
2021/10/15 09:47:23;;;;;;;;;59.00;48.75;;;;;13.68;66.28;101695.56;4966467;28;46551;-76
2021/10/15 09:52:26;;;;;;;;;46.00;39.00;;;;;13.92;65.80;101685.25;4980222;23;45373;-76
2021/10/15 09:54:58;;;;;;;;;39.50;35.00;;;;;14.06;64.15;101682.72;4975334;28;45477;-76
2021/10/15 09:57:28;;;;;;;;;41.25;35.75;;;;;14.22;65.33;101686.41;5001985;23;45882;-75
2021/10/15 09:59:54;;;;;;;;;41.25;33.00;;;;;14.35;63.44;101685.66;5028494;28;45447;-76
2021/10/15 10:02:20;;;;;;;;;35.25;32.75;;;;;14.45;64.17;101687.53;5043419;28;45462;-76
2021/10/15 10:04:46;;;;;;;;;39.25;34.00;;;;;14.58;64.43;101689.44;5018748;28;47459;-76
2021/10/15 10:07:11;;;;;;;;;37.00;33.00;;;;;14.70;64.20;101686.00;5046099;28;47366;-76
2021/10/15 10:09:37;;;;;;;;;33.00;30.75;;;;;14.79;64.45;101691.38;5031519;28;54779;-76
2021/10/15 10:12:02;;;;;;;;;43.25;36.00;;;;;14.86;63.69;101685.25;5036017;28;49098;-76
2021/10/15 10:14:28;;;;;;;;;31.75;24.25;;;;;14.89;63.51;101693.22;5036049;28;45732;-76
2021/10/15 10:16:53;;;;;;;;;30.75;28.00;;;;;14.87;62.94;101684.34;5054610;22;46520;-76
2021/10/15 10:19:20;;;;;;;;;33.00;31.00;;;;;14.87;63.09;101692.34;5023011;28;45908;-76
2021/10/15 10:21:46;;;;;;;;;36.00;31.00;;;;;14.84;63.67;101692.31;5018235;28;45589;-76
2021/10/15 10:24:14;;;;;;;;;31.50;29.25;;;;;14.83;62.89;101690.53;5017827;28;53734;-75
2021/10/15 10:26:50;;;;;;;;;38.50;32.00;;;;;14.78;62.29;101694.91;5022796;28;46432;-78
2021/10/15 10:29:16;;;;;;;;;30.50;28.00;;;;;14.78;62.94;101694.03;5052320;28;45540;-73
2021/10/15 10:31:42;;;;;;;;;30.50;27.75;;;;;14.75;63.11;101686.91;5052482;28;57883;-78
2021/10/15 10:34:09;;;;;;;;;33.00;28.25;;;;;14.70;63.18;101683.34;5030425;28;45573;-79
2021/10/15 10:36:35;;;;;;;;;32.00;27.50;;;;;14.68;63.67;101685.09;5052986;28;46257;-81
2021/10/15 10:39:21;;;;;;;;;34.75;28.75;;;;;14.71;63.47;101695.75;5039107;28;45330;-77
2021/10/15 10:42:09;;;;;;;;;30.50;26.25;;;;;14.70;63.88;101683.34;5045616;28;45316;-77
2021/10/15 10:44:49;;;;;;;;;28.75;25.00;;;;;14.79;63.80;101701.13;5055172;28;45391;-77
2021/10/15 10:47:15;;;;;;;;;31.50;27.25;;;;;14.85;63.91;101693.19;5054247;28;47448;-77
2021/10/15 10:49:41;;;;;;;;;31.00;26.50;;;;;14.87;63.57;101679.03;5031873;28;45379;-77
2021/10/15 10:52:15;;;;;;;;;34.25;26.75;;;;;15.06;63.85;101687.13;5034652;28;45544;-77
2021/10/15 10:54:41;;;;;;;;;28.75;27.50;;;;;15.15;63.66;101688.06;5057138;28;45364;-77
2021/10/15 10:57:18;;;;;;;;;28.33;22.67;;;;;15.32;63.63;101684.63;5052053;28;45756;-76
2021/10/15 10:59:44;;;;;;;;;29.00;24.67;;;;;15.51;63.60;101690.94;5053573;28;45556;-76
2021/10/15 11:02:16;;;;;;;;;30.33;26.33;;;;;15.65;63.15;101686.56;5059551;28;45497;-77
2021/10/15 11:04:41;;;;;;;;;31.25;25.50;;;;;15.86;62.62;101696.41;5059253;28;45488;-77
2021/10/15 11:07:24;;;;;;;;;26.67;24.67;;;;;16.01;63.06;101690.25;5056604;28;46143;-77
2021/10/15 11:10:00;;;;;;;;;24.00;22.33;;;;;16.10;62.26;101680.50;5057848;28;45489;-77
2021/10/15 11:12:25;;;;;;;;;23.00;20.33;;;;;16.21;62.15;101692.06;5055524;28;45465;-76
2021/10/15 11:15:11;;;;;;;;;24.67;20.67;;;;;16.28;62.18;101684.06;5055627;28;46706;-79
2021/10/15 11:17:42;;;;;;;;;26.00;20.67;;;;;16.36;61.43;101684.97;5054501;28;47590;-78
2021/10/15 11:20:08;;;;;;;;;23.00;18.33;;;;;16.45;62.39;101667.19;5051983;28;45518;-78
2021/10/15 11:22:34;;;;;;;;;20.00;15.67;;;;;16.55;62.11;101661.88;5037981;28;45323;-76
2021/10/15 11:24:59;;;;;;;;;22.33;18.67;;;;;16.65;62.04;101667.19;5050739;28;45469;-77